This is the latest recevied weather packets stored in our database for station/object WX4LTG. If no packets are shown the sender has not sent any weather packets the latest 10 day(s).
| Time | Temp. | Humidity | Pressure | Rain* | Wind** | Luminosity | Snow |
|---|---|---|---|---|---|---|---|
| 1777710175 | 23.89° C | 26% | 1011.1 hPa | 0 mm | - | 0 W/m² | - |
| 1777709872 | 23.89° C | 26% | 1011.1 hPa | 0 mm | - | 0 W/m² | - |
| 1777709570 | 23.33° C | 27% | 1011.1 hPa | 0 mm | - | 0 W/m² | - |
| 1777709267 | 23.89° C | 26% | 1011 hPa | 0 mm | - | 0 W/m² | - |
| 1777708964 | 23.89° C | 26% | 1011.1 hPa | 0 mm | - | 0 W/m² | - |
| 1777708661 | 24.44° C | 25% | 1011 hPa | 0 mm | - | 0 W/m² | - |
| 1777708359 | 23.33° C | 27% | 1010.7 hPa | 0 mm | - | 0 W/m² | - |
| 1777708056 | 22.78° C | 29% | 1011.1 hPa | 0 mm | - | 0 W/m² | - |
| 1777707754 | 23.89° C | 27% | 1010.6 hPa | 0 mm | - | 0 W/m² | - |
| 1777707450 | 23.89° C | 27% | 1010.7 hPa | 0 mm | - | 0 W/m² | - |
| 1777707146 | 22.78° C | 28% | 1010.7 hPa | 0 mm | - | 0 W/m² | - |
| 1777706844 | 22.78° C | 29% | 1011 hPa | 0 mm | - | 0 W/m² | - |
| 1777706541 | 22.78° C | 29% | 1011.1 hPa | 0 mm | - | 0 W/m² | - |
| 1777706239 | 22.22° C | 30% | 1010.8 hPa | 0 mm | - | 0 W/m² | - |
| 1777705936 | 21.67° C | 32% | 1011 hPa | 0 mm | - | 0 W/m² | - |
| 1777705635 | 21.67° C | 35% | 1010.5 hPa | 0 mm | - | 0 W/m² | - |
| 1777705332 | 21.67° C | 35% | 1010.8 hPa | 0 mm | - | 0 W/m² | - |
| 1777705030 | 21.67° C | 37% | 1010.5 hPa | 0 mm | - | 0 W/m² | - |
| 1777704728 | 21.67° C | 38% | 1010.5 hPa | 0 mm | - | 0 W/m² | - |
| 1777704426 | 21.67° C | 38% | 1010.4 hPa | 0 mm | - | 0 W/m² | - |
| 1777704123 | 21.67° C | 38% | 1010.5 hPa | 0 mm | - | 0 W/m² | - |
| 1777703821 | 21.67° C | 39% | 1010.3 hPa | 0 mm | - | 0 W/m² | - |
| 1777703518 | 21.67° C | 34% | 1010.3 hPa | 0 mm | - | 0 W/m² | - |
| 1777703215 | 21.67° C | 35% | 1010.3 hPa | 0 mm | - | 0 W/m² | - |
| 1777702913 | 22.22° C | 34% | 1010.4 hPa | 0 mm | - | 0 W/m² | - |
* Rain latest hour (hover to see other rain measurements)
** Current wind speed in m/s (hover to see current wind gust speed)